createdAt,value
2019-06-01T03:51:16.401Z,30.40
2019-06-01T03:54:11.607Z,30.50
2019-06-01T03:57:09.098Z,30.20
2019-06-01T04:00:05.397Z,29.70
2019-06-01T04:03:00.831Z,29.30
2019-06-01T04:05:57.206Z,28.90
2019-06-01T04:08:51.858Z,28.60
2019-06-01T04:11:48.342Z,28.30
2019-06-01T04:14:44.269Z,28.00
2019-06-01T04:17:39.610Z,27.60
2019-06-01T04:20:35.793Z,28.00
2019-06-01T04:23:30.356Z,28.40
2019-06-01T04:26:24.373Z,28.70
2019-06-01T04:29:18.409Z,28.90
2019-06-01T04:32:15.644Z,29.10
2019-06-01T04:35:11.358Z,29.30
2019-06-01T04:38:07.556Z,29.40
2019-06-01T04:41:03.492Z,29.50
2019-06-01T04:43:59.641Z,29.50
2019-06-01T04:46:54.476Z,29.60
2019-06-01T04:49:50.195Z,29.70
2019-06-01T04:52:44.494Z,29.70
2019-06-01T04:55:42.308Z,29.80
2019-06-01T04:58:35.407Z,29.80
2019-06-01T05:01:28.736Z,29.90
2019-06-01T05:04:22.343Z,30.00
2019-06-01T05:07:24.815Z,30.20
2019-06-01T05:10:27.640Z,30.30
2019-06-01T05:13:24.090Z,30.50
2019-06-01T05:16:18.943Z,30.50
2019-06-01T05:19:14.310Z,30.60
2019-06-01T05:22:16.756Z,30.60
2019-06-01T05:25:13.636Z,30.60
2019-06-01T05:28:09.511Z,30.60
2019-06-01T05:31:03.125Z,30.70
2019-06-01T05:33:57.280Z,30.80
2019-06-01T05:36:51.277Z,30.80
2019-06-01T05:39:49.757Z,30.90
2019-06-01T05:42:45.776Z,30.90
2019-06-01T05:45:40.915Z,30.90
2019-06-01T05:48:37.884Z,31.00
2019-06-01T05:51:35.486Z,31.00
2019-06-01T05:54:39.624Z,31.10
2019-06-01T05:57:43.429Z,31.10
2019-06-01T06:00:54.883Z,31.10
2019-06-01T06:03:50.293Z,31.10
2019-06-01T06:06:59.869Z,31.10
2019-06-01T06:09:55.338Z,31.10
2019-06-01T06:12:55.856Z,31.10
2019-06-01T06:15:56.523Z,31.20
2019-06-01T06:19:01.213Z,31.20
2019-06-01T06:22:03.067Z,31.20
2019-06-01T06:24:58.712Z,31.30
2019-06-01T06:27:55.879Z,31.30
2019-06-01T06:30:50.237Z,31.30
2019-06-01T06:33:56.078Z,31.30
2019-06-01T06:36:45.879Z,31.30
2019-06-01T06:39:45.602Z,31.30
2019-06-01T06:42:43.530Z,31.40
2019-06-01T06:45:40.277Z,31.30
2019-06-01T06:48:48.226Z,31.40
2019-06-01T06:51:44.197Z,31.40
2019-06-01T06:54:42.891Z,31.40
2019-06-01T06:57:39.659Z,31.40
2019-06-01T07:00:45.085Z,31.50
2019-06-01T07:03:44.084Z,31.40
2019-06-01T07:06:46.313Z,31.50
2019-06-01T07:09:40.972Z,31.50
2019-06-01T07:12:35.375Z,31.50
2019-06-01T07:15:36.289Z,31.50
2019-06-01T07:18:31.831Z,31.50
2019-06-01T07:21:28.666Z,31.50
2019-06-01T07:24:25.920Z,31.50
2019-06-01T07:27:19.927Z,31.50
2019-06-01T07:30:15.694Z,31.50
2019-06-01T07:33:10.864Z,31.50
2019-06-01T07:36:05.718Z,31.50
2019-06-01T07:38:59.708Z,31.50
2019-06-01T07:41:58.095Z,31.50
2019-06-01T07:44:53.125Z,31.60
2019-06-01T07:47:48.988Z,31.50
2019-06-01T07:50:43.765Z,31.60
2019-06-01T07:53:40.789Z,31.60
2019-06-01T07:56:37.312Z,31.60
2019-06-01T07:59:32.725Z,31.60
2019-06-01T08:02:29.124Z,31.60
2019-06-01T08:05:25.502Z,31.70
2019-06-01T08:08:27.241Z,31.70
2019-06-01T08:11:28.569Z,31.70
2019-06-01T08:14:20.171Z,31.70
2019-06-01T08:17:16.480Z,31.70
2019-06-01T08:20:12.313Z,31.70
2019-06-01T08:23:07.499Z,31.70
2019-06-01T08:26:01.788Z,31.60
2019-06-01T08:28:57.378Z,31.50
2019-06-01T08:31:55.665Z,31.50
2019-06-01T08:35:07.239Z,31.60
2019-06-01T08:37:47.471Z,31.70
2019-06-01T08:40:45.228Z,31.70
2019-06-01T08:43:40.283Z,31.80
2019-06-01T08:46:43.320Z,31.80
2019-06-01T08:49:42.297Z,31.80
2019-06-01T08:52:39.103Z,31.80
2019-06-01T08:55:38.887Z,31.80
2019-06-01T08:58:41.610Z,31.80
2019-06-01T09:01:38.864Z,31.80
2019-06-01T09:04:39.106Z,31.80
2019-06-01T09:07:35.713Z,31.90
2019-06-01T09:10:36.967Z,31.80
2019-06-01T09:13:35.359Z,31.80
2019-06-01T09:16:36.140Z,31.90
2019-06-01T09:19:35.726Z,31.90
2019-06-01T09:22:31.996Z,31.90
2019-06-01T09:25:29.854Z,31.90
2019-06-01T09:28:25.904Z,31.90
2019-06-01T09:31:26.225Z,31.90
2019-06-01T09:34:26.686Z,31.90
2019-06-01T09:37:22.685Z,31.90
2019-06-01T09:40:19.356Z,32.00
2019-06-01T09:43:14.181Z,31.90
2019-06-01T09:46:09.709Z,31.90
2019-06-01T09:49:05.129Z,32.00
2019-06-01T09:52:18.862Z,32.00
2019-06-01T09:55:15.857Z,32.00
2019-06-01T09:58:14.568Z,32.00
2019-06-01T10:01:19.494Z,32.00
2019-06-01T10:04:15.542Z,32.10
2019-06-01T10:07:10.307Z,32.00
2019-06-01T10:10:04.907Z,32.10
2019-06-01T10:13:02.138Z,32.10
2019-06-01T10:15:56.117Z,32.00
2019-06-01T10:18:50.848Z,32.00
2019-06-01T10:21:45.422Z,32.00
2019-06-01T10:24:41.397Z,32.00
2019-06-01T10:27:36.819Z,32.10
2019-06-01T10:30:35.808Z,32.00
2019-06-01T10:33:32.598Z,32.10
2019-06-01T10:36:28.377Z,32.00
2019-06-01T10:39:23.581Z,32.10
2019-06-01T10:42:18.368Z,32.10
2019-06-01T10:45:12.743Z,32.10
2019-06-01T10:48:06.121Z,31.90
2019-06-01T10:51:01.590Z,31.80
2019-06-01T10:53:56.402Z,31.70
2019-06-01T10:56:50.456Z,31.70
2019-06-01T10:59:46.193Z,31.70
2019-06-01T11:02:43.112Z,31.60
2019-06-01T11:05:40.937Z,31.50
2019-06-01T11:08:37.137Z,31.50
2019-06-01T11:11:57.427Z,31.50
2019-06-01T11:15:05.055Z,31.50
2019-06-01T11:18:03.131Z,31.40
2019-06-01T11:21:02.561Z,31.40
2019-06-01T11:23:58.403Z,31.40
2019-06-01T11:26:56.344Z,31.40
2019-06-01T11:29:51.865Z,31.40
2019-06-01T11:32:48.226Z,31.40
2019-06-01T11:35:43.415Z,31.40
2019-06-01T11:38:40.446Z,31.40
2019-06-01T11:41:34.501Z,31.40
2019-06-01T11:44:31.673Z,31.40
2019-06-01T11:47:27.365Z,31.50
2019-06-01T11:50:23.739Z,31.50
2019-06-01T11:53:23.616Z,31.50
2019-06-01T11:56:23.801Z,31.50
2019-06-01T11:59:21.238Z,31.40
2019-06-01T12:02:14.309Z,31.40
2019-06-01T12:05:14.390Z,31.40
2019-06-01T12:08:09.205Z,31.40
2019-06-01T12:11:03.117Z,31.30
2019-06-01T12:13:57.560Z,31.40
2019-06-01T12:16:52.203Z,31.30
2019-06-01T12:19:46.802Z,31.30
2019-06-01T12:22:43.433Z,31.30
2019-06-01T12:25:40.116Z,31.30
2019-06-01T12:28:35.067Z,31.30
2019-06-01T12:31:29.423Z,31.30
2019-06-01T12:34:26.694Z,31.20
2019-06-01T12:37:40.004Z,31.20
2019-06-01T12:40:18.311Z,31.20
2019-06-01T12:43:16.832Z,31.20
2019-06-01T12:46:11.213Z,31.20
2019-06-01T12:49:11.607Z,31.10
2019-06-01T12:52:07.797Z,31.10
2019-06-01T12:55:05.055Z,31.10
2019-06-01T12:58:00.268Z,31.10
2019-06-01T13:00:56.108Z,31.00
2019-06-01T13:03:51.700Z,31.00
2019-06-01T13:06:50.328Z,31.00
2019-06-01T13:09:42.030Z,31.00
2019-06-01T13:12:37.980Z,31.20
2019-06-01T13:15:33.034Z,31.40
2019-06-01T13:18:28.752Z,31.50
2019-06-01T13:21:27.731Z,31.60
2019-06-01T13:24:24.801Z,31.60
2019-06-01T13:27:20.872Z,31.60
2019-06-01T13:30:17.392Z,31.70
2019-06-01T13:33:12.071Z,31.70
2019-06-01T13:36:08.407Z,31.80
2019-06-01T13:39:04.125Z,31.70
2019-06-01T13:42:00.633Z,31.70
2019-06-01T13:44:53.877Z,31.70
2019-06-01T13:47:48.115Z,31.70
2019-06-01T13:50:43.574Z,31.70
2019-06-01T13:53:40.488Z,31.60
2019-06-01T13:56:35.189Z,31.70
2019-06-01T13:59:30.917Z,31.60
2019-06-01T14:02:26.334Z,31.60
2019-06-01T14:05:22.585Z,31.60
2019-06-01T14:08:28.461Z,31.60
2019-06-01T14:11:17.106Z,31.60
2019-06-01T14:14:12.730Z,31.60
2019-06-01T14:17:08.514Z,31.60
2019-06-01T14:20:02.074Z,31.60
2019-06-01T14:22:58.708Z,31.60
2019-06-01T14:25:54.274Z,31.60
2019-06-01T14:28:48.314Z,31.60
2019-06-01T14:31:43.773Z,31.60
2019-06-01T14:34:38.499Z,31.60
2019-06-01T14:37:33.141Z,31.60
2019-06-01T14:40:28.551Z,31.60
2019-06-01T14:43:24.761Z,31.60
2019-06-01T14:46:20.423Z,31.60
2019-06-01T14:49:15.114Z,31.60
2019-06-01T14:52:10.502Z,31.60
2019-06-01T14:55:05.357Z,31.60
2019-06-01T14:57:59.177Z,31.60
2019-06-01T15:00:54.662Z,31.60
2019-06-01T15:03:50.614Z,31.60
2019-06-01T15:06:48.088Z,31.60
2019-06-01T15:09:43.475Z,31.60
2019-06-01T15:12:39.116Z,31.60
2019-06-01T15:15:33.512Z,31.60
2019-06-01T15:18:29.672Z,31.50
2019-06-01T15:21:26.170Z,31.60
2019-06-01T15:24:20.150Z,31.60
2019-06-01T15:27:16.279Z,31.60
2019-06-01T15:30:11.114Z,31.50
2019-06-01T15:33:07.513Z,31.50
2019-06-01T15:36:03.448Z,31.50
2019-06-01T15:39:00.166Z,31.50
2019-06-01T15:41:55.212Z,31.50
2019-06-01T15:44:48.915Z,31.50
2019-06-01T15:47:43.736Z,31.50
2019-06-01T15:50:38.901Z,31.50
2019-06-01T15:53:32.655Z,31.50
2019-06-01T15:56:26.783Z,31.50
2019-06-01T15:59:22.210Z,31.50
2019-06-01T16:02:20.053Z,31.50
2019-06-01T16:05:16.550Z,31.50
2019-06-01T16:08:11.819Z,31.50
2019-06-01T16:11:07.312Z,31.50
2019-06-01T16:14:04.029Z,31.50
2019-06-01T16:17:00.791Z,31.50
2019-06-01T16:19:57.904Z,31.50
2019-06-01T16:22:53.858Z,31.50
2019-06-01T16:26:01.519Z,31.50
2019-06-01T16:28:48.015Z,31.50
2019-06-01T16:31:44.188Z,31.50
2019-06-01T16:34:38.447Z,31.50
2019-06-01T16:37:35.118Z,31.50
2019-06-01T16:40:30.760Z,31.50
2019-06-01T16:43:26.062Z,31.50
2019-06-01T16:46:22.667Z,31.50
2019-06-01T16:49:18.378Z,31.50
2019-06-01T16:52:12.353Z,31.50
2019-06-01T16:55:08.443Z,31.50
2019-06-01T16:58:06.311Z,31.50
2019-06-01T17:01:02.641Z,31.50
2019-06-01T17:03:56.522Z,31.50
2019-06-01T17:06:52.743Z,31.50
2019-06-01T17:09:48.333Z,31.50
2019-06-01T17:12:43.722Z,31.50
2019-06-01T17:15:39.509Z,31.50
2019-06-01T17:18:33.507Z,31.50
2019-06-01T17:21:27.806Z,31.50
2019-06-01T17:24:22.129Z,31.50
2019-06-01T17:27:16.996Z,31.50
2019-06-01T17:30:14.001Z,31.50
2019-06-01T17:33:08.965Z,31.50
2019-06-01T17:36:02.827Z,31.50
2019-06-01T17:38:58.081Z,31.50
2019-06-01T17:41:53.425Z,31.50
2019-06-01T17:44:49.270Z,31.50
2019-06-01T17:47:44.060Z,31.50
2019-06-01T17:50:39.417Z,31.50
2019-06-01T17:53:34.724Z,31.50
2019-06-01T17:56:29.467Z,31.50
2019-06-01T17:59:25.919Z,31.50
2019-06-01T18:02:21.942Z,31.50
2019-06-01T18:05:17.770Z,31.50
2019-06-01T18:08:14.302Z,31.50
2019-06-01T18:11:08.729Z,31.50
2019-06-01T18:14:06.036Z,31.50
2019-06-01T18:17:02.442Z,31.50
2019-06-01T18:19:58.586Z,31.50
2019-06-01T18:22:54.234Z,31.50
2019-06-01T18:25:51.241Z,31.50
2019-06-01T18:28:47.090Z,31.50
2019-06-01T18:31:43.594Z,31.50
2019-06-01T18:34:40.488Z,31.50
2019-06-01T18:37:36.092Z,31.40
2019-06-01T18:40:32.036Z,31.50
2019-06-01T18:43:29.333Z,31.50
2019-06-01T18:46:23.972Z,31.50
2019-06-01T18:49:19.364Z,31.50
2019-06-01T18:52:16.708Z,31.50
2019-06-01T18:55:14.564Z,31.50
2019-06-01T18:58:10.351Z,31.40
2019-06-01T19:01:08.329Z,31.40
2019-06-01T19:04:05.204Z,31.50
2019-06-01T19:06:59.195Z,31.40
2019-06-01T19:09:55.181Z,31.50
2019-06-01T19:12:51.589Z,31.40
2019-06-01T19:15:47.749Z,31.50
2019-06-01T19:18:43.725Z,31.40
2019-06-01T19:21:40.489Z,31.40
2019-06-01T19:24:37.076Z,31.40
2019-06-01T19:27:35.289Z,31.40
2019-06-01T19:30:43.543Z,31.40
2019-06-01T19:33:40.680Z,31.50
2019-06-01T19:36:35.464Z,31.40
2019-06-01T19:39:31.297Z,31.50
2019-06-01T19:42:26.743Z,31.50
2019-06-01T19:45:28.872Z,31.40
2019-06-01T19:48:18.837Z,31.50
2019-06-01T19:51:16.746Z,31.40
2019-06-01T19:54:12.940Z,31.50
2019-06-01T19:57:09.833Z,31.40
2019-06-01T20:00:06.157Z,31.40
2019-06-01T20:03:02.345Z,31.40
2019-06-01T20:05:56.169Z,31.40
2019-06-01T20:08:52.607Z,31.40
2019-06-01T20:12:01.381Z,31.40
2019-06-01T20:14:45.780Z,31.40
2019-06-01T20:17:41.671Z,31.40
2019-06-01T20:20:38.222Z,31.50
2019-06-01T20:23:32.952Z,31.40
2019-06-01T20:26:40.390Z,31.50
2019-06-01T20:29:26.075Z,31.40
2019-06-01T20:32:22.786Z,31.40
2019-06-01T20:35:18.076Z,31.40
2019-06-01T20:38:16.642Z,31.40
2019-06-01T20:41:12.496Z,31.40
2019-06-01T20:44:07.174Z,31.40
2019-06-01T20:47:02.116Z,31.40
2019-06-01T20:49:57.245Z,31.40
2019-06-01T20:52:52.728Z,31.40
2019-06-01T20:55:47.086Z,31.40
2019-06-01T20:58:43.507Z,31.40
2019-06-01T21:01:39.710Z,31.40
2019-06-01T21:04:36.461Z,31.40
2019-06-01T21:07:31.299Z,31.40
2019-06-01T21:10:25.620Z,31.40
2019-06-01T21:13:20.421Z,31.50
2019-06-01T21:16:14.179Z,31.40
2019-06-01T21:19:10.736Z,31.50
2019-06-01T21:22:05.962Z,31.40
2019-06-01T21:25:02.383Z,31.40
2019-06-01T21:27:57.467Z,31.40
2019-06-01T21:30:55.056Z,31.40
2019-06-01T21:33:49.512Z,31.40
2019-06-01T21:36:44.248Z,31.40
2019-06-01T21:39:39.517Z,31.40
2019-06-01T21:42:38.172Z,31.40
2019-06-01T21:45:28.739Z,31.40
2019-06-01T21:48:24.220Z,31.40
2019-06-01T21:51:20.384Z,31.40
2019-06-01T21:54:15.914Z,31.40
2019-06-01T21:57:11.556Z,31.40
2019-06-01T22:00:09.698Z,31.40
2019-06-01T22:03:06.437Z,31.40
2019-06-01T22:06:03.098Z,31.40
2019-06-01T22:08:56.940Z,31.40
2019-06-01T22:11:51.391Z,31.50
2019-06-01T22:14:46.566Z,31.40
2019-06-01T22:17:43.460Z,31.40
2019-06-01T22:20:38.838Z,31.40
2019-06-01T22:23:34.295Z,31.40
2019-06-01T22:26:28.652Z,31.40
2019-06-01T22:29:24.453Z,31.40
2019-06-01T22:32:23.092Z,31.40
2019-06-01T22:35:18.714Z,31.40
2019-06-01T22:38:15.402Z,31.40
2019-06-01T22:41:10.066Z,31.40
2019-06-01T22:44:05.866Z,31.40
2019-06-01T22:46:59.589Z,31.40
2019-06-01T22:49:55.179Z,31.40
2019-06-01T22:52:50.179Z,31.40
2019-06-01T22:55:46.869Z,31.40
2019-06-01T22:58:40.980Z,31.40
2019-06-01T23:01:37.449Z,31.40
2019-06-01T23:04:32.653Z,31.40
2019-06-01T23:07:29.193Z,31.40
2019-06-01T23:10:28.068Z,31.40
2019-06-01T23:13:21.250Z,31.40
2019-06-01T23:16:15.432Z,31.40
2019-06-01T23:19:09.949Z,31.40
2019-06-01T23:22:05.986Z,31.40
2019-06-01T23:25:01.523Z,31.40
2019-06-01T23:27:57.078Z,31.40
2019-06-01T23:30:51.139Z,31.40
2019-06-01T23:33:45.804Z,31.40
2019-06-01T23:36:40.751Z,31.40
2019-06-01T23:39:36.079Z,31.40
2019-06-01T23:42:31.299Z,31.40
2019-06-01T23:45:27.086Z,31.40
2019-06-01T23:48:23.129Z,31.50
2019-06-01T23:51:18.973Z,31.40
2019-06-01T23:54:14.635Z,31.40
2019-06-01T23:57:08.993Z,31.40
